Time;durP1;ratioP1;P1;durP2;ratioP2;P2;SDS_P1;SDS_P2;PMS_P1;PMS_P2;Temp;Humidity;BMP_temperature;BMP_pressure;BME280_temperature;BME280_humidity;BME280_pressure;Samples;Min_cycle;Max_cycle;Signal;HPM_P1;HPM_P2
2023/10/05 00:02:17;;;;;;;12.02;3.47;;;;;;;15.03;100.00;102356.69;5034909;28;20462;-76
2023/10/05 00:04:41;;;;;;;8.95;2.00;;;;;;;15.03;100.00;102345.97;5034667;28;20049;-76
2023/10/05 00:07:10;;;;;;;10.20;1.95;;;;;;;15.03;100.00;102354.00;5034913;28;20128;-78
2023/10/05 00:09:36;;;;;;;10.60;2.00;;;;;;;15.03;100.00;102354.00;5034727;28;20447;-76
2023/10/05 00:12:05;;;;;;;9.30;2.22;;;;;;;14.97;100.00;102353.56;5034888;28;20033;-76
2023/10/05 00:14:30;;;;;;;13.23;2.10;;;;;;;14.95;100.00;102350.16;5017443;28;20402;-75
2023/10/05 00:16:55;;;;;;;10.43;2.10;;;;;;;14.98;100.00;102346.38;5034863;28;20159;-76
2023/10/05 00:19:24;;;;;;;21.67;2.60;;;;;;;14.97;100.00;102350.03;5034631;28;20362;-76
2023/10/05 00:21:52;;;;;;;16.40;2.85;;;;;;;14.94;100.00;102345.78;5034772;28;20179;-76
2023/10/05 00:24:31;;;;;;;8.75;2.25;;;;;;;14.93;100.00;102359.31;5034345;28;20033;-77
2023/10/05 00:26:58;;;;;;;10.60;2.35;;;;;;;14.93;100.00;102345.94;5034448;28;20029;-77
2023/10/05 00:29:39;;;;;;;17.42;2.78;;;;;;;14.93;100.00;102344.09;5035107;28;20175;-81
2023/10/05 00:32:08;;;;;;;;;;;;;;;14.94;100.00;102350.28;5035194;28;20465;-81
2023/10/05 00:34:33;;;;;;;12.07;2.45;;;;;;;14.91;100.00;102345.19;5034172;28;19916;-76
2023/10/05 00:36:59;;;;;;;12.68;2.30;;;;;;;14.90;100.00;102346.16;5034815;28;20021;-77
2023/10/05 00:39:26;;;;;;;12.40;3.00;;;;;;;14.86;100.00;102358.13;5034142;28;20037;-79
2023/10/05 00:42:08;;;;;;;13.13;2.47;;;;;;;14.82;100.00;102352.19;5034175;28;20122;-76
2023/10/05 00:44:35;;;;;;;12.38;2.50;;;;;;;14.73;100.00;102358.31;5034088;28;20033;-76
2023/10/05 00:47:05;;;;;;;12.52;2.90;;;;;;;14.67;100.00;102358.84;5034091;28;20025;-76
2023/10/05 00:49:41;;;;;;;13.18;2.30;;;;;;;14.63;100.00;102353.75;5034223;28;20113;-76
2023/10/05 00:52:17;;;;;;;11.75;2.72;;;;;;;14.57;100.00;102362.25;5034048;28;20427;-76
2023/10/05 00:54:48;;;;;;;11.27;2.30;;;;;;;14.52;100.00;102367.13;5033509;28;20029;-76
2023/10/05 00:57:15;;;;;;;10.93;2.47;;;;;;;14.51;100.00;102359.22;5034581;28;20045;-77
2023/10/05 00:59:42;;;;;;;16.45;2.45;;;;;;;14.53;100.00;102359.97;5033866;28;20036;-76
2023/10/05 01:02:21;;;;;;;13.10;3.22;;;;;;;14.54;100.00;102353.63;5034425;28;20131;-76
2023/10/05 01:04:56;;;;;;;9.25;2.53;;;;;;;14.65;100.00;102366.16;5034059;28;20033;-76
2023/10/05 01:09:56;;;;;;;13.60;2.42;;;;;;;14.74;100.00;102343.94;5033616;28;20406;-77
2023/10/05 01:14:59;;;;;;;15.18;2.35;;;;;;;14.81;100.00;102345.13;5034172;28;20036;-76
2023/10/05 01:17:27;;;;;;;10.18;2.20;;;;;;;14.78;100.00;102340.88;5033862;28;20029;-76
2023/10/05 01:19:59;;;;;;;11.52;2.30;;;;;;;14.77;100.00;102344.53;5033825;28;20044;-76
2023/10/05 01:22:32;;;;;;;14.23;3.13;;;;;;;14.72;100.00;102338.72;5034019;28;20025;-76
2023/10/05 01:25:02;;;;;;;5.80;1.85;;;;;;;14.69;100.00;102340.78;5033825;28;20100;-77
2023/10/05 01:27:29;;;;;;;13.15;2.92;;;;;;;14.67;100.00;102348.13;5033454;28;20420;-75
2023/10/05 01:29:58;;;;;;;9.65;2.30;;;;;;;14.64;100.00;102346.53;5033640;28;20061;-76
2023/10/05 01:32:24;;;;;;;15.55;2.63;;;;;;;14.63;100.00;102343.03;5016233;28;20327;-76
2023/10/05 01:34:50;;;;;;;15.75;2.42;;;;;;;14.65;100.00;102350.09;5033082;28;20116;-75
2023/10/05 01:37:23;;;;;;;7.10;2.60;;;;;;;14.66;100.00;102346.41;5033607;28;20060;-75
2023/10/05 01:39:49;;;;;;;9.65;2.35;;;;;;;14.67;100.00;102345.44;5033712;28;20438;-79
2023/10/05 01:42:16;;;;;;;9.70;2.10;;;;;;;14.66;100.00;102344.59;5015581;28;20108;-76
2023/10/05 01:44:46;;;;;;;11.85;2.65;;;;;;;14.65;100.00;102340.22;5033718;28;20029;-75
2023/10/05 01:47:14;;;;;;;8.20;2.20;;;;;;;14.65;100.00;102348.25;5033192;28;20112;-75
2023/10/05 01:49:41;;;;;;;8.23;2.20;;;;;;;14.63;100.00;102343.03;5033063;28;20458;-75
2023/10/05 01:52:09;;;;;;;8.88;1.80;;;;;;;14.63;100.00;102343.03;5033373;28;20034;-76
2023/10/05 01:54:34;;;;;;;13.95;2.50;;;;;;;14.64;100.00;102349.22;5014991;28;20033;-76
2023/10/05 01:57:08;;;;;;;5.07;1.85;;;;;;;14.66;100.00;102341.94;5035495;28;20037;-76
2023/10/05 01:59:34;;;;;;;11.27;2.65;;;;;;;14.68;100.00;102331.09;5033625;28;20056;-75
2023/10/05 02:02:15;;;;;;;14.13;3.78;;;;;;;14.71;100.00;102344.22;5033166;28;20033;-75
2023/10/05 02:04:43;;;;;;;10.23;2.20;;;;;;;14.70;100.00;102335.31;5033489;28;20040;-75
2023/10/05 02:07:11;;;;;;;15.15;2.60;;;;;;;14.69;100.00;102346.16;5034175;28;20557;-75
2023/10/05 02:09:38;;;;;;;13.70;2.80;;;;;;;14.67;100.00;102343.59;5036903;28;20474;-76
2023/10/05 02:12:06;;;;;;;9.07;2.45;;;;;;;14.60;100.00;102351.28;5036690;28;20033;-76
2023/10/05 02:14:41;;;;;;;8.77;2.53;;;;;;;14.50;100.00;102345.00;5036751;28;20067;-75
2023/10/05 02:17:07;;;;;;;8.75;2.00;;;;;;;14.45;100.00;102344.53;5037011;28;20029;-76
2023/10/05 02:19:36;;;;;;;11.80;2.60;;;;;;;14.48;100.00;102335.38;5036888;28;20072;-75
2023/10/05 02:22:10;;;;;;;12.55;2.45;;;;;;;14.52;100.00;102329.66;5037058;28;20033;-76
2023/10/05 02:24:36;;;;;;;8.65;1.90;;;;;;;14.47;100.00;102329.19;5037401;28;20048;-75
2023/10/05 02:29:34;;;;;;;7.15;2.10;;;;;;;14.37;100.00;102317.53;5036776;28;20037;-76
2023/10/05 02:37:04;;;;;;;13.15;2.20;;;;;;;14.30;100.00;102333.25;5037114;28;20030;-75
2023/10/05 02:39:32;;;;;;;12.70;2.45;;;;;;;14.27;100.00;102330.84;5036480;28;20100;-75
2023/10/05 02:41:57;;;;;;;13.77;2.58;;;;;;;14.22;100.00;102333.06;5036689;28;20048;-80
2023/10/05 02:44:29;;;;;;;12.75;2.58;;;;;;;14.21;100.00;102324.19;5036862;28;20442;-76
2023/10/05 02:46:55;;;;;;;10.02;2.25;;;;;;;14.15;100.00;102321.16;5036890;28;20108;-76
2023/10/05 02:49:22;;;;;;;9.38;2.20;;;;;;;14.08;100.00;102321.66;5036637;28;20473;-76
2023/10/05 02:51:47;;;;;;;7.15;2.08;;;;;;;13.98;100.00;102326.06;5019595;28;20031;-76
2023/10/05 02:54:14;;;;;;;8.63;2.08;;;;;;;13.92;100.00;102319.38;5036584;28;20483;-75
2023/10/05 02:56:42;;;;;;;10.65;2.67;;;;;;;13.91;100.00;102320.38;5037456;28;20049;-76
2023/10/05 02:59:08;;;;;;;10.77;2.42;;;;;;;13.87;100.00;102313.56;5036767;28;20116;-76
2023/10/05 03:01:37;;;;;;;13.95;2.40;;;;;;;13.85;100.00;102317.34;5036582;28;20470;-76
2023/10/05 03:06:40;;;;;;;15.02;2.83;;;;;;;13.81;100.00;102323.91;5036232;28;20029;-76
2023/10/05 03:09:09;;;;;;;14.10;2.22;;;;;;;13.77;100.00;102320.63;5036488;28;20040;-76
2023/10/05 03:11:39;;;;;;;12.98;2.72;;;;;;;13.74;100.00;102323.56;5035809;28;20033;-76
2023/10/05 03:14:06;;;;;;;11.35;2.55;;;;;;;13.73;100.00;102322.72;5035753;28;20029;-75
2023/10/05 03:16:42;;;;;;;17.85;2.65;;;;;;;13.79;100.00;102320.50;5036262;28;20108;-75
2023/10/05 03:19:08;;;;;;;20.40;2.67;;;;;;;13.86;100.00;102327.06;5036317;28;20032;-76
2023/10/05 03:21:34;;;;;;;8.30;2.13;;;;;;;13.90;100.00;102324.00;5036483;28;20025;-76
2023/10/05 03:23:59;;;;;;;11.73;2.20;;;;;;;13.94;100.00;102316.56;5036306;28;20452;-76
2023/10/05 03:26:25;;;;;;;22.02;2.45;;;;;;;13.91;100.00;102324.84;5035320;28;20135;-76
2023/10/05 03:28:50;;;;;;;10.88;2.03;;;;;;;13.86;100.00;102329.75;5036037;28;20100;-79
2023/10/05 03:31:37;;;;;;;10.10;2.60;;;;;;;13.83;100.00;102325.47;5035548;28;20060;-75
2023/10/05 03:34:05;;;;;;;14.73;3.33;;;;;;;13.79;100.00;102324.03;5018535;28;20454;-75
2023/10/05 03:36:33;;;;;;;10.90;2.40;;;;;;;13.77;100.00;102325.16;5035400;28;20026;-76
2023/10/05 03:39:02;;;;;;;19.23;3.17;;;;;;;13.73;100.00;102319.16;5036547;28;20112;-75
2023/10/05 03:41:28;;;;;;;9.55;2.42;;;;;;;13.71;100.00;102327.31;5035101;28;20025;-76
2023/10/05 03:44:01;;;;;;;12.98;2.00;;;;;;;13.67;100.00;102317.84;5035193;28;20480;-76
2023/10/05 03:46:27;;;;;;;10.07;2.95;;;;;;;13.64;100.00;102322.59;5035225;28;20032;-76
2023/10/05 03:48:59;;;;;;;8.68;2.22;;;;;;;13.65;100.00;102325.16;5035204;28;20112;-76
2023/10/05 03:51:25;;;;;;;15.45;2.90;;;;;;;13.71;100.00;102324.66;5035097;28;20112;-76
2023/10/05 03:53:51;;;;;;;18.20;2.28;;;;;;;13.74;100.00;102328.91;5035321;28;20071;-76
2023/10/05 03:56:19;;;;;;;10.60;2.35;;;;;;;13.71;100.00;102332.66;5039586;28;20365;-75
2023/10/05 03:58:48;;;;;;;11.68;2.58;;;;;;;13.67;100.00;102320.50;5036135;28;20120;-76
2023/10/05 04:01:14;;;;;;;8.35;2.08;;;;;;;13.64;100.00;102326.09;5034839;28;20026;-75
2023/10/05 04:03:40;;;;;;;15.55;1.95;;;;;;;13.66;100.00;102321.50;5035083;28;20029;-76
2023/10/05 04:06:17;;;;;;;9.80;1.95;;;;;;;13.71;100.00;102319.28;5034940;28;20346;-75
2023/10/05 04:08:59;;;;;;;12.60;2.15;;;;;;;13.68;100.00;102314.19;5035428;28;20030;-75
2023/10/05 04:11:26;;;;;;;11.68;2.08;;;;;;;13.65;100.00;102313.59;5035373;28;20386;-75
2023/10/05 04:13:55;;;;;;;11.40;1.70;;;;;;;13.63;100.00;102318.22;5034781;28;20025;-76
2023/10/05 04:16:22;;;;;;;10.02;1.73;;;;;;;13.62;100.00;102313.84;5034600;28;20032;-77
2023/10/05 04:18:52;;;;;;;14.13;1.85;;;;;;;13.61;100.00;102320.16;5034613;28;20029;-77
2023/10/05 04:21:23;;;;;;;15.90;2.00;;;;;;;13.59;100.00;102322.97;5034843;28;20394;-76
2023/10/05 04:23:52;;;;;;;;;;;;;;;13.56;100.00;102325.88;5035328;28;20093;-76
2023/10/05 04:26:21;;;;;;;8.63;2.15;;;;;;;13.53;100.00;102324.28;5034561;28;19912;-76
2023/10/05 04:28:57;;;;;;;12.50;2.53;;;;;;;13.53;100.00;102324.28;5034006;28;20454;-76
2023/10/05 04:31:23;;;;;;;11.98;2.17;;;;;;;13.55;100.00;102326.84;5034151;28;20029;-76
2023/10/05 04:33:51;;;;;;;9.18;2.05;;;;;;;13.55;100.00;102317.03;5034772;28;20053;-76
2023/10/05 04:36:17;;;;;;;4.78;1.52;;;;;;;13.57;100.00;102322.25;5034902;28;20034;-75
2023/10/05 04:38:46;;;;;;;7.80;1.95;;;;;;;13.57;100.00;102324.91;5034253;28;20034;-76
2023/10/05 04:41:12;;;;;;;12.23;2.35;;;;;;;13.58;100.00;102319.44;5016639;28;20075;-75
2023/10/05 04:43:39;;;;;;;14.38;2.00;;;;;;;13.62;100.00;102316.53;5034245;28;20087;-75
2023/10/05 04:46:05;;;;;;;5.70;1.73;;;;;;;13.61;100.00;102326.34;5034124;28;20029;-76
2023/10/05 04:48:31;;;;;;;17.48;2.38;;;;;;;13.58;100.00;102318.59;5034111;28;20477;-77
2023/10/05 04:50:59;;;;;;;16.33;2.47;;;;;;;13.56;100.00;102318.69;5033912;28;20465;-76
2023/10/05 04:53:27;;;;;;;7.45;2.10;;;;;;;13.52;100.00;102317.25;5034188;28;20354;-76
2023/10/05 04:56:00;;;;;;;7.13;2.15;;;;;;;13.50;100.00;102324.53;5034294;28;20079;-76
2023/10/05 04:58:42;;;;;;;13.85;2.88;;;;;;;13.48;100.00;102323.81;5034569;28;20049;-77
2023/10/05 05:01:28;;;;;;;10.85;2.35;;;;;;;13.50;100.00;102321.03;5033821;28;20038;-77
2023/10/05 05:04:12;;;;;;;9.63;2.17;;;;;;;13.48;100.00;102322.94;5034647;28;20079;-76
2023/10/05 05:06:41;;;;;;;10.82;1.83;;;;;;;13.44;100.00;102326.88;5019051;28;20022;-76
2023/10/05 05:09:11;;;;;;;10.55;2.00;;;;;;;13.43;100.00;102312.63;5033659;28;20525;-76
2023/10/05 05:11:37;;;;;;;5.75;1.90;;;;;;;13.52;100.00;102332.44;5034512;28;20072;-76
2023/10/05 05:14:03;;;;;;;12.68;1.90;;;;;;;13.51;100.00;102336.94;5016563;28;20041;-77
2023/10/05 05:16:29;;;;;;;8.80;2.35;;;;;;;13.49;100.00;102338.88;5034024;28;20075;-77
2023/10/05 05:18:55;;;;;;;7.80;2.13;;;;;;;13.45;100.00;102342.78;5034106;28;20034;-78
2023/10/05 05:21:20;;;;;;;12.50;1.85;;;;;;;13.43;100.00;102336.69;5015974;28;20026;-77
2023/10/05 05:23:47;;;;;;;10.15;2.17;;;;;;;13.48;100.00;102347.03;5033588;28;20037;-76
2023/10/05 05:26:13;;;;;;;15.23;4.00;;;;;;;13.51;100.00;102347.66;5033864;28;20033;-76
2023/10/05 05:28:38;;;;;;;14.68;2.95;;;;;;;13.50;100.00;102350.44;5016072;28;20087;-76
2023/10/05 05:31:07;;;;;;;8.18;1.95;;;;;;;13.49;100.00;102341.56;5015908;28;20030;-77
2023/10/05 05:33:38;;;;;;;11.75;2.70;;;;;;;13.47;100.00;102338.16;5033575;28;20035;-77
2023/10/05 05:36:08;;;;;;;7.72;2.13;;;;;;;13.43;100.00;102342.03;5033549;28;20037;-80
2023/10/05 05:38:33;;;;;;;12.20;2.25;;;;;;;13.44;100.00;102354.44;5015767;28;20524;-80
2023/10/05 05:40:59;;;;;;;11.70;2.17;;;;;;;13.49;100.00;102351.41;5033778;28;20037;-79
2023/10/05 05:43:24;;;;;;;10.63;2.15;;;;;;;13.49;100.00;102346.06;5033226;28;20112;-75
2023/10/05 05:45:51;;;;;;;5.97;1.90;;;;;;;13.46;100.00;102340.97;5033256;28;20377;-78
2023/10/05 05:48:17;;;;;;;7.90;1.80;;;;;;;13.46;100.00;102354.31;5033195;28;20430;-78
2023/10/05 05:50:43;;;;;;;19.77;2.70;;;;;;;13.51;100.00;102347.66;4998694;28;20041;-77
2023/10/05 05:53:11;;;;;;;16.20;2.70;;;;;;;13.55;100.00;102348.25;5015296;28;20033;-76
2023/10/05 05:55:43;;;;;;;12.10;2.35;;;;;;;13.60;100.00;102346.06;5032896;28;20026;-76
2023/10/05 05:58:14;;;;;;;12.50;2.28;;;;;;;13.63;100.00;102343.16;5032233;28;20065;-76
2023/10/05 06:00:39;;;;;;;17.10;2.20;;;;;;;13.69;100.00;102348.00;5032726;28;20025;-79
2023/10/05 06:03:10;;;;;;;12.13;2.13;;;;;;;13.75;100.00;102349.34;5032370;28;20275;-79
2023/10/05 06:05:35;;;;;;;14.23;2.15;;;;;;;13.81;100.00;102345.28;5015029;28;20461;-77
2023/10/05 06:08:03;;;;;;;13.32;2.67;;;;;;;13.87;100.00;102344.81;5032659;28;20112;-77
2023/10/05 06:10:28;;;;;;;8.10;2.00;;;;;;;13.89;100.00;102354.41;5032546;28;20025;-77
2023/10/05 06:12:54;;;;;;;7.97;2.20;;;;;;;13.92;100.00;102351.47;5032494;28;20033;-78
2023/10/05 06:15:20;;;;;;;7.07;2.08;;;;;;;13.92;100.00;102347.97;5032606;28;20160;-79
2023/10/05 06:17:46;;;;;;;13.50;2.20;;;;;;;13.95;100.00;102358.41;5033430;28;20038;-79
2023/10/05 06:20:15;;;;;;;10.20;2.47;;;;;;;13.96;100.00;102361.94;5032810;28;20380;-79
2023/10/05 06:22:45;;;;;;;10.55;2.28;;;;;;;13.97;100.00;102361.81;5032946;28;20086;-76
2023/10/05 06:25:17;;;;;;;9.98;2.13;;;;;;;14.02;100.00;102366.81;5032411;28;20036;-79
2023/10/05 06:27:51;;;;;;;8.90;2.00;;;;;;;14.02;100.00;102373.00;5015542;28;20025;-78
2023/10/05 06:30:16;;;;;;;10.32;2.17;;;;;;;14.05;100.00;102378.13;5032406;28;20548;-78
2023/10/05 06:32:43;;;;;;;10.60;2.45;;;;;;;14.04;100.00;102368.38;5032054;28;20053;-78
2023/10/05 06:35:09;;;;;;;8.57;2.00;;;;;;;14.04;100.00;102383.59;5032282;28;20087;-79
2023/10/05 06:37:37;;;;;;;15.88;2.70;;;;;;;14.05;100.00;102380.78;5031919;28;20463;-79
2023/10/05 06:40:09;;;;;;;7.25;2.10;;;;;;;14.05;100.00;102375.44;5014871;28;20120;-77
2023/10/05 06:42:35;;;;;;;15.80;2.20;;;;;;;14.06;100.00;102376.28;5032865;28;20168;-79
2023/10/05 06:45:00;;;;;;;13.38;3.72;;;;;;;14.05;100.00;102377.28;5032693;28;20116;-79
2023/10/05 06:47:36;;;;;;;10.82;2.40;;;;;;;14.01;100.00;102389.19;5032367;28;20087;-78
2023/10/05 06:50:08;;;;;;;11.80;2.58;;;;;;;14.02;100.00;102390.91;5032411;28;20029;-80
2023/10/05 06:52:36;;;;;;;14.73;2.63;;;;;;;14.03;100.00;102397.94;5032559;28;20091;-78
2023/10/05 06:55:07;;;;;;;9.50;2.50;;;;;;;14.04;100.00;102400.50;5036393;28;20030;-78
2023/10/05 06:57:36;;;;;;;7.83;2.37;;;;;;;14.10;100.00;102404.50;5036368;28;20053;-78
2023/10/05 07:00:16;;;;;;;7.65;2.13;;;;;;;14.16;100.00;102404.00;5035964;28;20264;-78
2023/10/05 07:02:45;;;;;;;11.25;2.45;;;;;;;14.19;100.00;102410.94;5036158;28;20025;-78
2023/10/05 07:05:11;;;;;;;15.00;2.63;;;;;;;14.20;100.00;102416.16;5036622;28;20033;-78
2023/10/05 07:07:37;;;;;;;11.95;2.10;;;;;;;14.20;100.00;102415.31;5035952;28;20025;-78
2023/10/05 07:10:04;;;;;;;6.57;2.00;;;;;;;14.21;100.00;102433.06;5036202;28;20043;-77
2023/10/05 07:12:46;;;;;;;8.65;2.22;;;;;;;14.27;100.00;102432.56;5036356;28;20366;-77
2023/10/05 07:15:13;;;;;;;9.10;2.00;;;;;;;14.31;100.00;102431.34;5018952;28;20442;-78
2023/10/05 07:17:39;;;;;;;12.30;2.92;;;;;;;14.38;100.00;102429.88;5035613;28;20450;-78
2023/10/05 07:20:11;;;;;;;8.68;2.10;;;;;;;14.47;100.00;102439.00;5018137;28;20032;-77
2023/10/05 07:22:40;;;;;;;12.48;2.42;;;;;;;14.53;100.00;102441.16;5017765;28;20353;-77
2023/10/05 07:25:06;;;;;;;12.80;2.83;;;;;;;14.58;100.00;102443.47;5035249;28;20045;-78
2023/10/05 07:27:31;;;;;;;12.55;3.35;;;;;;;14.64;100.00;102451.00;5035828;28;20091;-78
2023/10/05 07:29:57;;;;;;;15.23;2.85;;;;;;;14.67;100.00;102436.53;5035463;28;20029;-78
2023/10/05 07:32:22;;;;;;;18.15;3.08;;;;;;;14.73;100.00;102434.16;5035579;28;20083;-79
2023/10/05 07:34:47;;;;;;;15.75;2.40;;;;;;;14.77;100.00;102438.31;5035059;28;20033;-79
2023/10/05 07:37:13;;;;;;;10.88;2.85;;;;;;;14.84;100.00;102440.47;5017502;28;20037;-77
2023/10/05 07:39:42;;;;;;;9.77;2.28;;;;;;;14.86;100.00;102446.56;5035667;28;20021;-78
2023/10/05 07:42:08;;;;;;;13.32;2.63;;;;;;;14.98;100.00;102456.25;5035052;28;20060;-77
2023/10/05 07:44:36;;;;;;;11.63;3.13;;;;;;;15.05;100.00;102456.56;5034864;28;20059;-78
2023/10/05 07:47:02;;;;;;;7.65;2.53;;;;;;;15.15;100.00;102450.31;5035351;28;20473;-78
2023/10/05 07:49:27;;;;;;;9.48;2.20;;;;;;;15.24;100.00;102454.06;5034912;28;20112;-78
2023/10/05 07:51:53;;;;;;;13.60;2.08;;;;;;;15.37;100.00;102459.22;5035408;28;20021;-77
2023/10/05 07:54:18;;;;;;;14.85;2.90;;;;;;;15.43;100.00;102455.16;5034648;28;20466;-79
2023/10/05 07:56:45;;;;;;;10.18;2.47;;;;;;;15.57;100.00;102464.69;5035093;28;20327;-77
2023/10/05 07:59:10;;;;;;;7.78;2.50;;;;;;;15.63;100.00;102467.72;5035460;28;20029;-76
2023/10/05 08:01:36;;;;;;;12.45;2.67;;;;;;;15.65;100.00;102472.94;5035203;28;20026;-81
2023/10/05 08:04:01;;;;;;;11.73;2.55;;;;;;;15.74;100.00;102461.41;5034920;28;20116;-78
2023/10/05 08:06:27;;;;;;;6.15;2.28;;;;;;;15.87;100.00;102471.97;5034333;28;20080;-78
2023/10/05 08:08:53;;;;;;;13.65;2.53;;;;;;;15.96;100.00;102481.00;5034867;28;20041;-77
2023/10/05 08:11:20;;;;;;;7.22;2.35;;;;;;;15.99;100.00;102478.94;5034917;28;20091;-76
2023/10/05 08:13:45;;;;;;;16.45;2.65;;;;;;;16.00;100.00;102474.41;5034433;28;20120;-77
2023/10/05 08:16:12;;;;;;;12.70;2.70;;;;;;;15.90;100.00;102479.75;5016804;28;20029;-77
2023/10/05 08:18:38;;;;;;;9.77;2.58;;;;;;;15.91;100.00;102485.94;5034548;28;20347;-76
2023/10/05 08:21:07;;;;;;;12.82;2.83;;;;;;;15.89;100.00;102490.63;5034403;28;20028;-76
2023/10/05 08:23:33;;;;;;;13.18;2.45;;;;;;;15.84;100.00;102501.75;5034464;28;20040;-76
2023/10/05 08:25:59;;;;;;;12.18;2.30;;;;;;;15.82;100.00;102504.56;5034462;28;20032;-77
2023/10/05 08:28:24;;;;;;;17.52;2.65;;;;;;;15.84;100.00;102510.66;5034636;28;20404;-79
2023/10/05 08:31:05;;;;;;;11.23;2.42;;;;;;;15.78;100.00;102500.44;5034927;28;20063;-77
2023/10/05 08:33:34;;;;;;;16.40;2.63;;;;;;;15.72;100.00;102506.31;5016693;28;20029;-77
2023/10/05 08:36:06;;;;;;;13.02;2.30;;;;;;;15.70;100.00;102500.22;5034643;28;20039;-73
2023/10/05 08:38:34;;;;;;;15.82;2.72;;;;;;;15.62;100.00;102506.25;5017664;28;20116;-75
2023/10/05 08:41:07;;;;;;;6.10;1.95;;;;;;;15.61;100.00;102512.59;5034755;28;20025;-76
2023/10/05 08:43:46;;;;;;;13.20;3.00;;;;;;;15.65;100.00;102516.72;5034141;28;20083;-77
2023/10/05 08:46:14;;;;;;;11.82;2.90;;;;;;;15.66;100.00;102520.25;5034326;28;20365;-76
2023/10/05 08:48:41;;;;;;;17.15;2.65;;;;;;;15.72;100.00;102532.28;5033870;28;20446;-75
2023/10/05 08:53:35;;;;;;;11.13;2.40;;;;;;;15.76;100.00;102539.94;5033681;28;20351;-77
2023/10/05 08:56:00;;;;;;;7.22;2.20;;;;;;;15.81;100.00;102545.81;5033800;28;20028;-76
2023/10/05 08:58:28;;;;;;;10.95;2.80;;;;;;;15.85;100.00;102549.06;5034367;28;20041;-76
2023/10/05 09:00:59;;;;;;;8.98;2.13;;;;;;;15.96;100.00;102550.81;5034342;28;20052;-76
2023/10/05 09:04:01;;;;;;;10.52;2.35;;;;;;;15.99;100.00;102555.94;5034067;28;20029;-75
2023/10/05 09:06:20;;;;;;;10.73;2.75;;;;;;;16.02;100.00;102555.66;5031309;28;20049;-78
2023/10/05 09:11:33;;;;;;;6.90;2.30;;;;;;;15.98;100.00;102557.75;5033662;28;20450;-77
2023/10/05 09:14:12;;;;;;;10.73;2.40;;;;;;;15.95;100.00;102549.13;5033081;28;20071;-78
2023/10/05 09:16:47;;;;;;;17.52;2.78;;;;;;;15.94;100.00;102548.25;5033220;28;20108;-76
2023/10/05 09:19:23;;;;;;;19.90;2.50;;;;;;;15.93;100.00;102553.75;5033798;28;20104;-76
2023/10/05 09:21:50;;;;;;;8.65;2.00;;;;;;;15.94;100.00;102558.16;5033851;28;20112;-77
2023/10/05 09:24:20;;;;;;;15.73;2.63;;;;;;;15.95;100.00;102557.19;5034091;28;20040;-75
2023/10/05 09:26:52;;;;;;;11.45;3.20;;;;;;;15.95;100.00;102549.97;5033918;28;20034;-77
2023/10/05 09:29:23;;;;;;;13.00;2.88;;;;;;;16.00;100.00;102553.13;5033236;28;20033;-78
2023/10/05 09:31:50;;;;;;;8.88;2.15;;;;;;;15.97;100.00;102568.63;5034024;28;20322;-79
2023/10/05 09:34:40;;;;;;;15.48;2.78;;;;;;;15.95;100.00;102563.38;5033084;28;20034;-79
2023/10/05 09:37:07;;;;;;;10.27;2.20;;;;;;;15.97;100.00;102560.56;5033368;28;20162;-78
2023/10/05 09:39:44;;;;;;;16.20;2.40;;;;;;;15.97;100.00;102565.94;5032779;28;20041;-77
2023/10/05 09:42:16;;;;;;;17.42;2.78;;;;;;;15.97;100.00;102565.94;5032585;28;20033;-79
2023/10/05 09:44:50;;;;;;;16.13;2.90;;;;;;;15.99;100.00;102566.69;5032921;28;20034;-76
2023/10/05 09:47:20;;;;;;;15.75;3.08;;;;;;;16.06;100.00;102575.03;5033183;28;20033;-75
2023/10/05 09:49:46;;;;;;;7.90;2.13;;;;;;;16.06;100.00;102562.44;5032874;28;20096;-80
2023/10/05 09:52:13;;;;;;;23.85;2.95;;;;;;;16.17;100.00;102573.13;5033480;28;20037;-79
2023/10/05 09:54:40;;;;;;;10.35;2.92;;;;;;;16.24;100.00;102570.72;5015165;28;20112;-79
2023/10/05 09:57:10;;;;;;;14.82;2.70;;;;;;;16.41;100.00;102571.97;5032791;28;20060;-76
2023/10/05 09:59:41;;;;;;;5.50;2.10;;;;;;;16.56;100.00;102577.81;5032699;28;20076;-76
2023/10/05 10:02:12;;;;;;;11.15;2.30;;;;;;;16.73;100.00;102570.91;5033680;28;20112;-76
2023/10/05 10:04:39;;;;;;;;;;;;;;;16.92;100.00;102579.06;5033911;28;20109;-76
2023/10/05 10:07:22;;;;;;;14.48;2.60;;;;;;;17.08;100.00;102581.22;5033082;28;20281;-80
2023/10/05 10:09:53;;;;;;;5.90;2.10;;;;;;;17.12;100.00;102571.00;5032488;28;20040;-77
2023/10/05 10:12:38;;;;;;;10.55;2.53;;;;;;;17.10;100.00;102581.06;5033420;28;20021;-76
2023/10/05 10:15:24;;;;;;;7.30;2.35;;;;;;;17.12;100.00;102579.06;5032718;28;20069;-79
2023/10/05 10:18:03;;;;;;;13.55;2.40;;;;;;;17.22;100.00;102571.88;5032494;28;20508;-77
2023/10/05 10:20:37;;;;;;;10.10;2.20;;;;;;;17.48;100.00;102568.63;5033029;28;20037;-77
2023/10/05 10:23:18;;;;;;;10.07;2.28;;;;;;;17.78;100.00;102567.59;5033422;28;20110;-76
2023/10/05 10:25:45;;;;;;;9.48;2.60;;;;;;;18.01;100.00;102569.97;5015235;28;20037;-79
2023/10/05 10:28:17;;;;;;;9.80;2.53;;;;;;;18.02;100.00;102568.13;5034130;28;20038;-76
2023/10/05 10:31:10;;;;;;;8.55;2.30;;;;;;;18.22;100.00;102575.16;5036637;28;20033;-78
2023/10/05 10:33:37;;;;;;;7.57;2.00;;;;;;;18.29;100.00;102584.34;5037445;28;20033;-81
2023/10/05 10:36:04;;;;;;;12.10;2.60;;;;;;;18.33;100.00;102566.00;5036227;28;20123;-78
2023/10/05 10:38:30;;;;;;;7.25;2.17;;;;;;;18.32;100.00;102577.81;5036295;28;20034;-78
2023/10/05 10:41:07;;;;;;;8.27;2.88;;;;;;;18.29;100.00;102567.34;5036534;28;20040;-80
2023/10/05 10:43:33;;;;;;;12.30;2.30;;;;;;;18.13;100.00;102570.66;5036396;28;20029;-78
2023/10/05 10:46:00;;;;;;;16.15;2.70;;;;;;;18.04;100.00;102572.38;5036954;28;20022;-77
2023/10/05 10:48:37;;;;;;;13.77;2.42;;;;;;;18.05;100.00;102571.38;5036859;28;20065;-79
2023/10/05 10:51:10;;;;;;;11.50;2.42;;;;;;;17.77;100.00;102571.25;5018429;28;20040;-76
2023/10/05 10:53:39;;;;;;;10.15;2.60;;;;;;;17.75;100.00;102580.47;5036256;28;20041;-77
2023/10/05 10:56:17;;;;;;;7.55;2.35;;;;;;;17.76;100.00;102574.09;5035851;28;20029;-78
2023/10/05 10:58:44;;;;;;;10.93;2.50;;;;;;;17.80;100.00;102570.97;5053808;28;20053;-78
2023/10/05 11:01:28;;;;;;;8.00;2.40;;;;;;;17.80;100.00;102570.97;5056015;28;20041;-78
2023/10/05 11:04:01;;;;;;;7.93;2.10;;;;;;;17.91;100.00;102567.28;5056463;28;20120;-80
2023/10/05 11:06:28;;;;;;;11.63;2.63;;;;;;;18.06;100.00;102570.38;5056658;28;20043;-79
2023/10/05 11:08:59;;;;;;;8.27;2.40;;;;;;;18.17;100.00;102573.88;5056286;28;20392;-80
2023/10/05 11:11:25;;;;;;;7.38;2.17;;;;;;;18.07;100.00;102579.31;5056410;28;20029;-81
2023/10/05 11:13:56;;;;;;;15.38;2.45;;;;;;;18.16;100.00;102570.34;5055746;28;20116;-80
2023/10/05 11:16:34;;;;;;;10.05;2.42;;;;;;;18.26;100.00;102575.72;5055450;28;20033;-78
2023/10/05 11:19:03;;;;;;;8.07;2.33;;;;;;;18.33;100.00;102577.66;5055784;28;20120;-82
2023/10/05 11:21:35;;;;;;;8.52;2.20;;;;;;;18.38;100.00;102579.91;5056391;28;20025;-80
2023/10/05 11:24:06;;;;;;;9.00;2.55;;;;;;;18.45;100.00;102585.53;5055398;28;20037;-83
2023/10/05 11:27:05;;;;;;;10.93;2.50;;;;;;;18.57;100.00;102586.19;5056205;28;20033;-79
2023/10/05 11:29:29;;;;;;;8.88;2.05;;;;;;;18.73;100.00;102580.16;5063222;28;20078;-85
2023/10/05 11:32:01;;;;;;;6.53;1.90;;;;;;;18.75;100.00;102572.75;5055450;28;20033;-84
2023/10/05 11:34:38;;;;;;;8.88;2.50;;;;;;;18.74;100.00;102577.31;5055647;28;20120;-82
2023/10/05 11:37:11;;;;;;;10.77;1.90;;;;;;;18.72;100.00;102582.03;5055500;28;20029;-82
2023/10/05 11:39:39;;;;;;;6.25;2.25;;;;;;;18.57;100.00;102578.09;5055799;28;20080;-80
2023/10/05 11:42:05;;;;;;;8.80;2.30;;;;;;;18.33;100.00;102577.66;5055202;28;20037;-82
2023/10/05 11:44:31;;;;;;;10.40;2.42;;;;;;;18.37;100.00;102588.97;5055629;28;20401;-82